Delta Virtual Airport Information Service

Sint Maarten Princess Juliana International Airport

ICAO: TNCM Country: Netherlands
Latitude: 18.041 Longitude: -63.1089
Latest Arrival : KLM725 (EHAM-TNCM) Latest Departure : FDX578731 (TNCM-KDFW)


WX CaptureLIVE
Data provided by noaa.gov | Fetched at 21:43:41

METAR : TNCM 240200Z 10009KT 070V130 9999 FEW018 29/25 Q1016

TAF : TNCM 232320Z 2400/2424 10011KT P6SM FEW018 FEW030


Runway Data for TNCM
Data provided by openaviationdata.com

Runway ID Mag Var Hdg Length Elevation Surface ILS Freq ILS Id ILS Slope
10 -13 95° 7670 ft 0 ft Asphalt -- -- --
28 -13 275° 7670 ft 0 ft Asphalt -- -- --

Sint Maarten Princess Juliana International Airport, Netherlands
Use only for reference purposes



Not for navigational purposes.